createdAt,value
2018-09-23T00:01:06.738Z,98945.05
2018-09-23T00:03:35.283Z,98929.45
2018-09-23T00:06:03.737Z,98923.02
2018-09-23T00:08:32.215Z,98923.86
2018-09-23T00:11:00.743Z,98916.82
2018-09-23T00:13:29.225Z,98910.63
2018-09-23T00:15:57.650Z,98907.98
2018-09-23T00:18:26.146Z,98918.47
2018-09-23T00:20:54.805Z,98922.30
2018-09-23T00:23:23.302Z,98918.13
2018-09-23T00:25:51.742Z,98912.39
2018-09-23T00:28:20.157Z,98909.08
2018-09-23T00:30:48.600Z,98924.67
2018-09-23T00:33:17.037Z,98914.47
2018-09-23T00:35:45.487Z,98905.71
2018-09-23T00:38:14.070Z,98900.98
2018-09-23T00:40:42.597Z,98908.09
2018-09-23T00:43:11.064Z,98894.55
2018-09-23T00:45:39.709Z,98879.33
2018-09-23T00:48:08.588Z,98887.28
2018-09-23T00:50:37.071Z,98883.83
2018-09-23T00:53:05.970Z,98882.67
2018-09-23T00:55:34.514Z,98877.08
2018-09-23T00:58:02.970Z,98876.66
2018-09-23T01:00:31.538Z,98871.81
2018-09-23T01:03:00.037Z,98865.28
2018-09-23T01:05:28.545Z,98863.98
2018-09-23T01:07:56.997Z,98865.53
2018-09-23T01:10:25.677Z,98864.95
2018-09-23T01:12:54.114Z,98854.41
2018-09-23T01:15:22.557Z,98858.27
2018-09-23T01:17:51.038Z,98857.86
2018-09-23T01:20:21.091Z,98851.58
2018-09-23T01:22:50.031Z,98848.17
2018-09-23T01:25:18.517Z,98824.58
2018-09-23T01:27:47.034Z,98837.75
2018-09-23T01:30:15.480Z,98832.63
2018-09-23T01:32:44.015Z,98831.59
2018-09-23T01:35:13.462Z,98844.12
2018-09-23T01:37:41.972Z,98825.55
2018-09-23T01:40:10.393Z,98810.38
2018-09-23T01:42:38.890Z,98808.67
2018-09-23T01:45:07.870Z,98818.89
2018-09-23T01:47:36.445Z,98812.14
2018-09-23T01:50:04.966Z,98810.66
2018-09-23T01:52:33.469Z,98800.14
2018-09-23T01:55:01.874Z,98805.22
2018-09-23T01:57:30.367Z,98800.50
2018-09-23T01:59:58.847Z,98797.25
2018-09-23T02:02:27.317Z,98782.22
2018-09-23T02:04:55.767Z,98784.27
2018-09-23T02:07:24.260Z,98780.86
2018-09-23T02:09:52.774Z,98772.41
2018-09-23T02:12:21.221Z,98781.89
2018-09-23T02:14:49.633Z,98795.39
2018-09-23T02:17:18.091Z,98791.34
2018-09-23T02:19:46.787Z,98789.63
2018-09-23T02:22:15.258Z,98800.31
2018-09-23T02:24:43.744Z,98796.74
2018-09-23T02:27:12.202Z,98796.73
2018-09-23T02:29:40.731Z,98796.92
2018-09-23T02:32:09.193Z,98794.41
2018-09-23T02:34:37.802Z,98784.79
2018-09-23T02:37:06.627Z,98785.67
2018-09-23T02:39:35.165Z,98789.77
2018-09-23T02:42:03.617Z,98789.50
2018-09-23T02:44:32.356Z,98781.86
2018-09-23T02:47:00.907Z,98778.27
2018-09-23T02:49:29.382Z,98789.06
2018-09-23T02:51:57.841Z,98787.40
2018-09-23T02:54:26.387Z,98784.88
2018-09-23T02:56:54.941Z,98776.09
2018-09-23T02:59:23.433Z,98770.83
2018-09-23T03:01:51.894Z,98783.02
2018-09-23T03:04:20.354Z,98770.33
2018-09-23T03:06:48.817Z,98774.55
2018-09-23T03:09:17.355Z,98769.11
2018-09-23T03:11:45.836Z,98775.20
2018-09-23T03:14:14.331Z,98765.06
2018-09-23T03:16:42.974Z,98760.32
2018-09-23T03:19:11.407Z,98768.97
2018-09-23T03:21:40.094Z,98763.75
2018-09-23T03:24:08.714Z,98764.08
2018-09-23T03:26:37.238Z,98762.73
2018-09-23T03:29:06.107Z,98759.02
2018-09-23T03:31:34.550Z,98760.88
2018-09-23T03:34:03.076Z,98760.36
2018-09-23T03:36:31.522Z,98754.97
2018-09-23T03:39:00.018Z,98761.75
2018-09-23T03:41:28.528Z,98742.49
2018-09-23T03:43:57.050Z,98753.30
2018-09-23T03:46:25.548Z,98752.17
2018-09-23T03:48:54.084Z,98746.59
2018-09-23T03:51:22.566Z,98743.34
2018-09-23T03:53:50.994Z,98740.31
2018-09-23T03:56:19.518Z,98742.22
2018-09-23T03:58:47.967Z,98739.19
2018-09-23T04:01:16.538Z,98735.80
2018-09-23T04:03:45.000Z,98737.47
2018-09-23T04:06:13.522Z,98735.14
2018-09-23T04:08:42.040Z,98730.73
2018-09-23T04:11:10.506Z,98729.05
2018-09-23T04:13:38.989Z,98729.73
2018-09-23T04:16:07.702Z,98725.73
2018-09-23T04:18:36.122Z,98718.26
2018-09-23T04:21:04.744Z,98730.25
2018-09-23T04:23:33.193Z,98731.79
2018-09-23T04:26:01.718Z,98722.02
2018-09-23T04:28:30.194Z,98731.45
2018-09-23T04:30:58.644Z,98706.66
2018-09-23T04:33:27.040Z,98723.03
2018-09-23T04:35:55.513Z,98716.25
2018-09-23T04:38:23.982Z,98724.86
2018-09-23T04:40:52.478Z,98717.27
2018-09-23T04:43:20.985Z,98709.87
2018-09-23T04:45:49.437Z,98712.86
2018-09-23T04:48:17.901Z,98703.41
2018-09-23T04:50:46.431Z,98703.59
2018-09-23T04:53:14.855Z,98697.32
2018-09-23T04:55:43.539Z,98700.48
2018-09-23T04:58:12.058Z,98695.19
2018-09-23T05:00:40.711Z,98696.86
2018-09-23T05:03:09.217Z,98701.75
2018-09-23T05:05:37.707Z,98710.73
2018-09-23T05:08:06.890Z,98710.59
2018-09-23T05:10:35.452Z,98704.44
2018-09-23T05:13:03.982Z,98703.78
2018-09-23T05:15:32.447Z,98697.73
2018-09-23T05:18:00.915Z,98706.19
2018-09-23T05:20:29.407Z,98694.70
2018-09-23T05:22:57.868Z,98706.00
2018-09-23T05:25:26.390Z,98707.17
2018-09-23T05:27:54.845Z,98696.01
2018-09-23T05:30:23.337Z,98692.61
2018-09-23T05:32:51.810Z,98698.75
2018-09-23T05:35:20.312Z,98704.33
2018-09-23T05:37:48.758Z,98697.47
2018-09-23T05:40:17.227Z,98695.78
2018-09-23T05:42:45.801Z,98699.17
2018-09-23T05:45:14.460Z,98699.93
2018-09-23T05:47:42.906Z,98695.93
2018-09-23T05:50:11.365Z,98702.89
2018-09-23T05:52:39.988Z,98702.05
2018-09-23T05:55:08.550Z,98694.29
2018-09-23T05:57:37.049Z,98696.34
2018-09-23T06:00:06.291Z,98698.37
2018-09-23T06:02:34.849Z,98700.41
2018-09-23T06:05:03.261Z,98696.53
2018-09-23T06:07:31.858Z,98694.16
2018-09-23T06:10:00.402Z,98697.07
2018-09-23T06:12:28.854Z,98691.67
2018-09-23T06:14:57.258Z,98695.74
2018-09-23T06:17:25.709Z,98690.33
2018-09-23T06:19:54.164Z,98699.50
2018-09-23T06:22:22.726Z,98710.17
2018-09-23T06:24:51.262Z,98700.67
2018-09-23T06:27:19.763Z,98698.98
2018-09-23T06:29:48.218Z,98700.84
2018-09-23T06:32:16.743Z,98703.20
2018-09-23T06:34:45.316Z,98707.23
2018-09-23T06:37:13.906Z,98705.57
2018-09-23T06:39:42.486Z,98698.24
2018-09-23T06:42:10.988Z,98696.53
2018-09-23T06:44:39.665Z,98695.70
2018-09-23T06:47:08.389Z,98706.85
2018-09-23T06:49:36.873Z,98702.79
2018-09-23T06:52:05.509Z,98703.14
2018-09-23T06:54:33.932Z,98709.91
2018-09-23T06:57:02.464Z,98712.11
2018-09-23T06:59:30.893Z,98704.66
2018-09-23T07:01:59.394Z,98701.77
2018-09-23T07:04:27.914Z,98696.31
2018-09-23T07:06:56.402Z,98698.81
2018-09-23T07:09:24.818Z,98705.06
2018-09-23T07:11:53.322Z,98695.59
2018-09-23T07:14:21.868Z,98696.86
2018-09-23T07:16:50.427Z,98699.14
2018-09-23T07:19:18.889Z,98705.42
2018-09-23T07:21:47.301Z,98702.20
2018-09-23T07:24:15.899Z,98706.67
2018-09-23T07:26:44.302Z,98707.67
2018-09-23T07:29:12.802Z,98701.92
2018-09-23T07:31:41.261Z,98704.55
2018-09-23T07:34:09.785Z,98697.63
2018-09-23T07:36:38.307Z,98704.69
2018-09-23T07:39:08.747Z,98707.48
2018-09-23T07:41:37.245Z,98706.23
2018-09-23T07:44:06.429Z,98713.00
2018-09-23T07:46:34.985Z,98712.26
2018-09-23T07:49:03.530Z,98703.20
2018-09-23T07:51:31.985Z,98708.23
2018-09-23T07:54:00.554Z,98708.36
2018-09-23T07:56:29.162Z,98706.92
2018-09-23T07:58:57.649Z,98700.41
2018-09-23T08:01:26.117Z,98705.80
2018-09-23T08:03:54.624Z,98696.23
2018-09-23T08:06:23.165Z,98693.59
2018-09-23T08:08:51.750Z,98692.39
2018-09-23T08:11:20.170Z,98688.38
2018-09-23T08:13:48.836Z,98692.52
2018-09-23T08:16:17.116Z,98689.37
2018-09-23T08:18:45.694Z,98689.78
2018-09-23T08:21:14.273Z,98690.56
2018-09-23T08:23:42.801Z,98690.88
2018-09-23T08:26:11.270Z,98691.55
2018-09-23T08:28:39.795Z,98691.36
2018-09-23T08:31:09.522Z,98700.84
2018-09-23T08:33:38.066Z,98697.10
2018-09-23T08:36:06.839Z,98703.55
2018-09-23T08:38:35.494Z,98708.30
2018-09-23T08:41:03.989Z,98714.64
2018-09-23T08:43:32.382Z,98714.48
2018-09-23T08:46:00.865Z,98724.80
2018-09-23T08:48:29.305Z,98712.87
2018-09-23T08:50:57.811Z,98709.44
2018-09-23T08:53:26.286Z,98706.96
2018-09-23T08:55:54.809Z,98698.29
2018-09-23T08:58:23.229Z,98697.00
2018-09-23T09:00:52.246Z,98685.80
2018-09-23T09:03:21.574Z,98682.45
2018-09-23T09:05:50.029Z,98678.59
2018-09-23T09:08:18.485Z,98683.31
2018-09-23T09:10:47.284Z,98688.43
2018-09-23T09:13:15.776Z,98683.40
2018-09-23T09:15:44.453Z,98677.60
2018-09-23T09:18:12.979Z,98678.32
2018-09-23T09:20:41.375Z,98665.89
2018-09-23T09:23:09.848Z,98663.82
2018-09-23T09:25:38.431Z,98656.86
2018-09-23T09:28:07.378Z,98655.59
2018-09-23T09:30:35.881Z,98643.36
2018-09-23T09:33:04.424Z,98639.70
2018-09-23T09:35:32.979Z,98642.66
2018-09-23T09:38:01.398Z,98635.56
2018-09-23T09:40:30.051Z,98633.12
2018-09-23T09:42:58.586Z,98628.06
2018-09-23T09:45:27.090Z,98621.44
2018-09-23T09:47:56.098Z,98614.76
2018-09-23T09:50:24.607Z,98622.84
2018-09-23T09:52:53.146Z,98615.56
2018-09-23T09:55:21.683Z,98614.76
2018-09-23T09:57:50.174Z,98619.12
2018-09-23T10:00:23.862Z,98613.80
2018-09-23T10:02:52.382Z,98613.10
2018-09-23T10:05:20.818Z,98601.41
2018-09-23T10:07:50.029Z,98597.05
2018-09-23T10:10:18.690Z,98604.09
2018-09-23T10:12:47.262Z,98604.63
2018-09-23T10:15:15.712Z,98599.87
2018-09-23T10:17:44.371Z,98597.70
2018-09-23T10:20:12.806Z,98598.08
2018-09-23T10:22:41.645Z,98597.00
2018-09-23T10:25:10.014Z,98590.27
2018-09-23T10:27:38.559Z,98588.10
2018-09-23T10:30:08.403Z,98583.11
2018-09-23T10:32:36.943Z,98570.22
2018-09-23T10:35:05.463Z,98574.30
2018-09-23T10:37:33.885Z,98562.31
2018-09-23T10:40:02.353Z,98558.09
2018-09-23T10:42:30.988Z,98560.23
2018-09-23T10:44:59.558Z,98547.97
2018-09-23T10:47:28.013Z,98559.01
2018-09-23T10:49:56.478Z,98559.06
2018-09-23T10:52:25.002Z,98568.24
2018-09-23T10:54:53.470Z,98568.76
2018-09-23T10:57:21.946Z,98565.06
2018-09-23T10:59:50.423Z,98561.59
2018-09-23T11:02:18.943Z,98561.39
2018-09-23T11:04:47.381Z,98567.34
2018-09-23T11:07:15.861Z,98563.83
2018-09-23T11:09:44.557Z,98554.20
2018-09-23T11:12:12.950Z,98571.42
2018-09-23T11:14:41.399Z,98551.30
2018-09-23T11:17:09.886Z,98543.69
2018-09-23T11:19:38.588Z,98547.08
2018-09-23T11:22:07.378Z,98530.96
2018-09-23T11:24:35.940Z,98535.64
2018-09-23T11:27:04.603Z,98526.23
2018-09-23T11:29:33.128Z,98517.11
2018-09-23T11:32:01.762Z,98515.81
2018-09-23T11:34:30.315Z,98504.44
2018-09-23T11:36:58.754Z,98506.53
2018-09-23T11:39:27.290Z,98517.36
2018-09-23T11:41:55.822Z,98509.88
2018-09-23T11:44:24.356Z,98501.00
2018-09-23T11:46:52.794Z,98486.84
2018-09-23T11:49:21.303Z,98482.00
2018-09-23T11:51:49.746Z,98494.65
2018-09-23T11:54:18.384Z,98480.01
2018-09-23T11:56:46.838Z,98492.10
2018-09-23T11:59:15.334Z,98457.97
2018-09-23T12:01:43.821Z,98448.86
2018-09-23T12:04:12.330Z,98451.90
2018-09-23T12:06:41.011Z,98445.00
2018-09-23T12:09:11.626Z,98441.99
2018-09-23T12:11:40.117Z,98426.97
2018-09-23T12:14:08.967Z,98426.22
2018-09-23T12:16:37.422Z,98429.52
2018-09-23T12:19:06.422Z,98437.69
2018-09-23T12:21:34.925Z,98434.70
2018-09-23T12:24:03.481Z,98431.70
2018-09-23T12:26:32.039Z,98450.97
2018-09-23T12:29:00.591Z,98435.85
2018-09-23T12:31:29.142Z,98457.02
2018-09-23T12:33:57.650Z,98422.03
2018-09-23T12:36:26.142Z,98429.42
2018-09-23T12:38:54.609Z,98432.85
2018-09-23T12:41:23.103Z,98438.25
2018-09-23T12:43:51.542Z,98436.55
2018-09-23T12:46:20.083Z,98432.81
2018-09-23T12:48:48.529Z,98429.63
2018-09-23T12:51:17.014Z,98421.20
2018-09-23T12:53:45.526Z,98424.27
2018-09-23T12:56:14.022Z,98427.24
2018-09-23T12:58:42.529Z,98412.36
2018-09-23T13:01:11.056Z,98411.08
2018-09-23T13:03:39.608Z,98406.59
2018-09-23T13:06:08.261Z,98406.69
2018-09-23T13:08:36.770Z,98398.39
2018-09-23T13:11:05.514Z,98400.78
2018-09-23T13:13:33.942Z,98392.75
2018-09-23T13:16:02.369Z,98397.59
2018-09-23T13:18:30.844Z,98385.03
2018-09-23T13:20:59.422Z,98383.00
2018-09-23T13:23:27.854Z,98393.50
2018-09-23T13:25:56.426Z,98370.48
2018-09-23T13:28:24.933Z,98371.09
2018-09-23T13:30:53.459Z,98368.36
2018-09-23T13:33:21.906Z,98375.00
2018-09-23T13:35:50.390Z,98377.43
2018-09-23T13:38:18.907Z,98379.53
2018-09-23T13:40:47.626Z,98357.53
2018-09-23T13:43:16.134Z,98348.98
2018-09-23T13:45:44.694Z,98343.58
2018-09-23T13:48:13.192Z,98366.34
2018-09-23T13:50:42.037Z,98359.94
2018-09-23T13:53:10.499Z,98378.95
2018-09-23T13:55:39.045Z,98365.81
2018-09-23T13:58:07.718Z,98378.84
2018-09-23T14:00:36.286Z,98379.42
2018-09-23T14:03:04.958Z,98375.78
2018-09-23T14:05:33.406Z,98394.70
2018-09-23T14:08:01.921Z,98387.13
2018-09-23T14:10:30.383Z,98376.61
2018-09-23T14:12:58.845Z,98365.33
2018-09-23T14:15:27.286Z,98360.38
2018-09-23T14:17:55.725Z,98344.82
2018-09-23T14:20:24.278Z,98335.89
2018-09-23T14:22:53.057Z,98330.63
2018-09-23T14:25:21.598Z,98319.04
2018-09-23T14:27:50.055Z,98329.70
2018-09-23T14:30:18.560Z,98323.77
2018-09-23T14:32:47.162Z,98321.70
2018-09-23T14:35:15.702Z,98315.25
2018-09-23T14:37:44.205Z,98311.78
2018-09-23T14:40:12.747Z,98315.91
2018-09-23T14:42:41.289Z,98306.52
2018-09-23T14:45:09.862Z,98310.84
2018-09-23T14:47:38.548Z,98307.72
2018-09-23T14:50:07.750Z,98309.63
2018-09-23T14:52:36.199Z,98312.10
2018-09-23T14:55:05.003Z,98299.16
2018-09-23T14:57:33.498Z,98284.03
2018-09-23T15:00:03.205Z,98287.51
2018-09-23T15:02:30.434Z,98280.05
2018-09-23T15:04:58.914Z,98267.16
2018-09-23T15:07:27.487Z,98272.45
2018-09-23T15:09:55.949Z,98278.91
2018-09-23T15:12:24.473Z,98272.47
2018-09-23T15:14:52.922Z,98272.70
2018-09-23T15:17:21.423Z,98271.21
2018-09-23T15:19:49.881Z,98276.45
2018-09-23T15:22:18.435Z,98264.88
2018-09-23T15:24:46.841Z,98272.11
2018-09-23T15:27:15.375Z,98256.61
2018-09-23T15:29:43.864Z,98256.01
2018-09-23T15:32:12.523Z,98247.79
2018-09-23T15:34:41.217Z,98237.63
2018-09-23T15:37:09.823Z,98244.74
2018-09-23T15:39:38.400Z,98201.45
2018-09-23T15:42:07.291Z,98220.05
2018-09-23T15:44:35.718Z,98216.20
2018-09-23T15:47:04.270Z,98189.98
2018-09-23T15:49:32.841Z,98202.84
2018-09-23T15:52:01.535Z,98183.39
2018-09-23T15:54:30.058Z,98173.92
2018-09-23T15:56:58.490Z,98175.16
2018-09-23T15:59:26.938Z,98173.23
2018-09-23T16:01:55.554Z,98174.71
2018-09-23T16:04:24.214Z,98193.56
2018-09-23T16:06:52.620Z,98166.32
2018-09-23T16:09:21.267Z,98157.32
2018-09-23T16:11:49.789Z,98198.39
2018-09-23T16:14:18.366Z,98164.19
2018-09-23T16:16:46.915Z,98163.47
2018-09-23T16:19:15.366Z,98174.42
2018-09-23T16:21:44.016Z,98177.05
2018-09-23T16:24:12.591Z,98166.00
2018-09-23T16:26:41.214Z,98161.47
2018-09-23T16:29:09.969Z,98171.54
2018-09-23T16:31:38.512Z,98145.38
2018-09-23T16:34:07.169Z,98157.01
2018-09-23T16:36:35.666Z,98146.75
2018-09-23T16:39:05.563Z,98133.27
2018-09-23T16:41:34.234Z,98130.25
2018-09-23T16:44:02.668Z,98112.77
2018-09-23T16:46:31.204Z,98106.86
2018-09-23T16:48:59.655Z,98121.53
2018-09-23T16:51:28.245Z,98129.26
2018-09-23T16:53:56.769Z,98115.09
2018-09-23T16:56:25.425Z,98124.63
2018-09-23T16:58:53.913Z,98111.58
2018-09-23T17:01:22.349Z,98134.25
2018-09-23T17:03:50.921Z,98142.63
2018-09-23T17:06:19.589Z,98116.06
2018-09-23T17:08:48.217Z,98109.63
2018-09-23T17:11:16.728Z,98100.19
2018-09-23T17:13:45.212Z,98102.38
2018-09-23T17:16:13.650Z,98112.52
2018-09-23T17:18:42.165Z,98088.69
2018-09-23T17:21:10.634Z,98104.97
2018-09-23T17:23:39.292Z,98109.23
2018-09-23T17:26:07.827Z,98129.06
2018-09-23T17:28:36.357Z,98118.13
2018-09-23T17:31:04.988Z,98106.20
2018-09-23T17:33:33.429Z,98117.10
2018-09-23T17:36:01.998Z,98105.39
2018-09-23T17:38:30.413Z,98111.88
2018-09-23T17:40:59.249Z,98127.36
2018-09-23T17:43:27.706Z,98124.55
2018-09-23T17:45:56.531Z,98155.55
2018-09-23T17:48:24.947Z,98171.58
2018-09-23T17:50:53.629Z,98172.58
2018-09-23T17:53:22.161Z,98151.91
2018-09-23T17:55:50.829Z,98163.41
2018-09-23T17:58:19.262Z,98171.36
2018-09-23T18:00:47.758Z,98178.95
2018-09-23T18:03:16.573Z,98178.81
2018-09-23T18:05:45.141Z,98145.08
2018-09-23T18:08:13.943Z,98156.10
2018-09-23T18:10:42.414Z,98138.42
2018-09-23T18:13:10.920Z,98131.20
2018-09-23T18:15:39.674Z,98137.96
2018-09-23T18:18:08.346Z,98118.73
2018-09-23T18:20:37.084Z,98144.51
2018-09-23T18:23:05.970Z,98151.34
2018-09-23T18:25:34.525Z,98233.94
2018-09-23T18:28:03.136Z,98305.67
2018-09-23T18:30:31.597Z,98335.33
2018-09-23T18:33:00.086Z,98384.35
2018-09-23T18:35:28.718Z,98393.08
2018-09-23T18:37:57.234Z,98394.05
2018-09-23T18:40:25.853Z,98377.39
2018-09-23T18:42:54.294Z,98341.79
2018-09-23T18:45:22.851Z,98414.04
2018-09-23T18:47:51.358Z,98485.27
2018-09-23T18:50:19.985Z,98515.08
2018-09-23T18:52:52.779Z,98497.86
2018-09-23T18:55:27.019Z,98528.53
2018-09-23T18:57:55.355Z,98534.44
2018-09-23T19:00:23.862Z,98544.22
2018-09-23T19:02:52.414Z,98562.73
2018-09-23T19:05:21.112Z,98563.42
2018-09-23T19:07:49.572Z,98548.75
2018-09-23T19:10:18.071Z,98587.20
2018-09-23T19:12:52.057Z,98612.65
2018-09-23T19:15:20.544Z,98620.05
2018-09-23T19:17:49.309Z,98614.11
2018-09-23T19:20:17.789Z,98621.33
2018-09-23T19:22:51.669Z,98627.70
2018-09-23T19:25:20.560Z,98634.27
2018-09-23T19:27:49.091Z,98626.84
2018-09-23T19:30:17.760Z,98654.38
2018-09-23T19:32:46.263Z,98682.73
2018-09-23T19:35:14.770Z,98706.41
2018-09-23T19:37:43.230Z,98722.92
2018-09-23T19:40:11.690Z,98747.15
2018-09-23T19:42:40.256Z,98764.92
2018-09-23T19:45:09.046Z,98794.50
2018-09-23T19:47:37.741Z,98770.73
2018-09-23T19:50:06.787Z,98772.08
2018-09-23T19:52:35.313Z,98786.63
2018-09-23T19:55:03.864Z,98792.72
2018-09-23T19:57:32.592Z,98794.56
2018-09-23T20:00:01.080Z,98788.20
2018-09-23T20:02:29.752Z,98794.96
2018-09-23T20:04:58.250Z,98813.02
2018-09-23T20:07:26.878Z,98806.59
2018-09-23T20:09:55.370Z,98803.89
2018-09-23T20:12:23.815Z,98808.27
2018-09-23T20:14:52.497Z,98814.59
2018-09-23T20:17:21.032Z,98820.69
2018-09-23T20:19:49.738Z,98808.88
2018-09-23T20:22:18.270Z,98823.55
2018-09-23T20:24:47.011Z,98838.20
2018-09-23T20:27:15.546Z,98824.23
2018-09-23T20:29:44.362Z,98842.60
2018-09-23T20:32:12.892Z,98883.44
2018-09-23T20:34:41.608Z,98911.61
2018-09-23T20:37:10.035Z,98915.05
2018-09-23T20:39:38.568Z,98903.72
2018-09-23T20:42:07.391Z,98920.92
2018-09-23T20:44:35.995Z,98947.86
2018-09-23T20:47:04.542Z,98961.62
2018-09-23T20:49:33.116Z,98950.85
2018-09-23T20:52:01.675Z,98949.31
2018-09-23T20:54:30.253Z,98947.22
2018-09-23T20:56:59.081Z,98953.11
2018-09-23T20:59:27.701Z,98955.94
2018-09-23T21:01:56.430Z,98962.83
2018-09-23T21:04:24.905Z,98961.19
2018-09-23T21:06:53.360Z,98973.30
2018-09-23T21:09:21.972Z,98990.89
2018-09-23T21:11:50.421Z,99015.15
2018-09-23T21:14:19.185Z,99020.94
2018-09-23T21:16:48.371Z,99033.19
2018-09-23T21:19:17.068Z,99029.44
2018-09-23T21:21:45.561Z,99021.05
2018-09-23T21:24:14.243Z,99011.47
2018-09-23T21:26:42.766Z,99035.66
2018-09-23T21:29:11.473Z,99031.48
2018-09-23T21:31:39.937Z,99027.92
2018-09-23T21:34:09.055Z,99049.42
2018-09-23T21:36:37.497Z,99072.98
2018-09-23T21:39:07.982Z,99101.58
2018-09-23T21:41:36.666Z,99100.38
2018-09-23T21:44:05.747Z,99092.21
2018-09-23T21:46:34.209Z,99085.50
2018-09-23T21:49:02.906Z,99071.75
2018-09-23T21:51:31.353Z,99102.61
2018-09-23T21:53:59.895Z,99123.10
2018-09-23T21:56:28.440Z,99129.47
2018-09-23T21:58:56.890Z,99126.86
2018-09-23T22:01:25.541Z,99130.43
2018-09-23T22:03:53.962Z,99128.85
2018-09-23T22:06:22.494Z,99145.44
2018-09-23T22:08:51.062Z,99167.07
2018-09-23T22:11:19.546Z,99163.92
2018-09-23T22:13:47.987Z,99173.70
2018-09-23T22:16:16.510Z,99169.20
2018-09-23T22:18:44.964Z,99173.52
2018-09-23T22:21:13.470Z,99178.17
2018-09-23T22:23:42.004Z,99171.70
2018-09-23T22:26:10.546Z,99164.42
2018-09-23T22:28:39.581Z,99174.20
2018-09-23T22:31:09.486Z,99179.81
2018-09-23T22:33:38.013Z,99188.61
2018-09-23T22:36:07.065Z,99193.61
2018-09-23T22:38:35.604Z,99202.27
2018-09-23T22:41:04.225Z,99215.91
2018-09-23T22:43:32.729Z,99226.88
2018-09-23T22:46:01.521Z,99230.16
2018-09-23T22:48:30.026Z,99244.08
2018-09-23T22:50:58.573Z,99257.50
2018-09-23T22:53:27.090Z,99264.44
2018-09-23T22:55:55.591Z,99266.98
2018-09-23T22:58:24.034Z,99279.20
2018-09-23T23:00:52.550Z,99278.96
2018-09-23T23:03:21.014Z,99285.44
2018-09-23T23:05:49.531Z,99296.88
2018-09-23T23:08:17.973Z,99304.83
2018-09-23T23:10:46.464Z,99310.44
2018-09-23T23:13:14.936Z,99314.81
2018-09-23T23:15:43.435Z,99317.63
2018-09-23T23:18:11.983Z,99322.02
2018-09-23T23:20:40.526Z,99329.35
2018-09-23T23:23:09.281Z,99334.58
2018-09-23T23:25:37.749Z,99344.61
2018-09-23T23:28:06.594Z,99345.56
2018-09-23T23:30:35.121Z,99346.66
2018-09-23T23:33:03.638Z,99351.17
2018-09-23T23:35:32.246Z,99362.16
2018-09-23T23:38:00.801Z,99360.81
2018-09-23T23:40:29.379Z,99371.68
2018-09-23T23:42:57.860Z,99373.88
2018-09-23T23:45:26.329Z,99379.25
2018-09-23T23:47:54.838Z,99387.31
2018-09-23T23:50:23.297Z,99395.47
2018-09-23T23:52:51.778Z,99394.13
2018-09-23T23:55:20.244Z,99397.31
2018-09-23T23:57:48.768Z,99395.62
